ETHF

Details ICAO ETHF
Name FRITZLAR
Region Germany - Military
Timezone Europe/Berlin (UTC+1.0)
Plans Departing 1
Arriving 0
Stats Elevation 566 ft / 173 m (AMSL)
Location 51.114464° 9.285960°
Runways 1
Magnetic Variation 2.555° E
Sunrise 2017-12-17 07:23:04 UTC / 2017-12-17 08:23:04 Local
Sunset 2017-12-17 15:17:35 UTC / 2017-12-17 16:17:35 Local
Advertisement - Login to hide

Runways

ID Width Length Bearing (true) Bearing (mag) Surface Threshold Offset Overrun Length
12 98 ft / 30 m 3,434 ft / 1,047 m 119.23° 116.68° Asphalt 0 ft / 0 m 0 ft / 0 m
30 98 ft / 30 m 3,434 ft / 1,047 m 299.24° 296.69° Asphalt 0 ft / 0 m 0 ft / 0 m

Map

Weather


0- 5 10 15 20 25 30 35+ Temperature / ° C

Clouds and Precipitation
Forecast for 2017-12-18 00:00 UTC. Updated 12 minutes ago

Ground ~20,000 ft ~40,000 ft Winds

METAR

ETHF 172120Z 19008KT 9999 BKN035 BKN170 01/M01 Q1023 BLU

TAF

Not found

Frequencies

Tower 122.10 MHz TWR
Approach 123.30 MHz RADAR
Approach 124.42 MHz LANGEN CON
Approach 135.60 MHz RADAR
Warning: Do not use this data for real-world aviation or navigation. No guarantee of current accuracy is given.